createdAt,value
2022-12-23T00:00:31.642Z,992.1
2022-12-23T00:01:33.752Z,992.4
2022-12-23T00:02:35.939Z,992.5
2022-12-23T00:03:37.843Z,992.6
2022-12-23T00:04:39.762Z,992.6
2022-12-23T00:05:42.033Z,992.7
2022-12-23T00:06:43.775Z,992.6
2022-12-23T00:07:45.642Z,992.6
2022-12-23T00:08:47.607Z,992.6
2022-12-23T00:09:49.653Z,992.6
2022-12-23T00:10:51.645Z,992.6
2022-12-23T00:11:53.642Z,992.5
2022-12-23T00:12:55.670Z,992.5
2022-12-23T00:13:57.774Z,992.5
2022-12-23T00:14:59.640Z,992.5
2022-12-23T00:16:01.868Z,992.5
2022-12-23T00:17:09.246Z,992.5
2022-12-23T00:18:05.724Z,992.5
2022-12-23T00:19:22.683Z,992.4
2022-12-23T00:20:24.703Z,992.6
2022-12-23T00:21:26.629Z,992.5
2022-12-23T00:22:28.683Z,992.5
2022-12-23T00:23:30.661Z,992.5
2022-12-23T00:24:32.650Z,992.6
2022-12-23T00:25:34.609Z,992.5
2022-12-23T00:26:35.706Z,992.5
2022-12-23T00:27:37.987Z,992.5
2022-12-23T00:28:39.650Z,992.7
2022-12-23T00:29:40.700Z,992.5
2022-12-23T00:30:42.622Z,992.5
2022-12-23T00:31:44.857Z,992.5
2022-12-23T00:32:46.641Z,992.4
2022-12-23T00:33:48.680Z,992.5
2022-12-23T00:34:50.888Z,992.5
2022-12-23T00:35:52.727Z,992.5
2022-12-23T00:36:54.681Z,992.5
2022-12-23T00:37:56.613Z,992.4
2022-12-23T00:38:58.768Z,992.5
2022-12-23T00:40:06.033Z,992.5
2022-12-23T00:41:02.662Z,992.6
2022-12-23T00:42:04.710Z,992.5
2022-12-23T00:43:06.899Z,992.5
2022-12-23T00:44:08.943Z,992.5
2022-12-23T00:45:10.841Z,992.5
2022-12-23T00:46:12.692Z,992.5
2022-12-23T00:47:14.605Z,992.5
2022-12-23T00:48:15.643Z,992.5
2022-12-23T00:49:16.682Z,992.5
2022-12-23T00:50:18.741Z,992.5
2022-12-23T00:51:20.654Z,992
2022-12-23T00:52:22.890Z,992.4
2022-12-23T00:53:24.691Z,992.5
2022-12-23T00:54:26.802Z,992.5
2022-12-23T00:55:28.703Z,992.5
2022-12-23T00:56:30.631Z,992.6
2022-12-23T00:57:32.601Z,992.6
2022-12-23T00:58:34.641Z,992.5
2022-12-23T00:59:37.268Z,992.5
2022-12-23T01:00:38.682Z,992.4
2022-12-23T01:01:40.737Z,992.4
2022-12-23T01:02:42.795Z,992.4
2022-12-23T01:03:44.671Z,992.4
2022-12-23T01:04:46.689Z,992
2022-12-23T01:05:48.641Z,991.9
2022-12-23T01:06:49.647Z,991.8
2022-12-23T01:07:51.640Z,992.2
2022-12-23T01:08:52.729Z,992.2
2022-12-23T01:09:54.678Z,992.4
2022-12-23T01:10:56.680Z,992.3
2022-12-23T01:11:58.643Z,992.2
2022-12-23T01:12:59.661Z,992.2
2022-12-23T01:14:01.749Z,992.2
2022-12-23T01:15:03.711Z,992.2
2022-12-23T01:16:06.799Z,992.2
2022-12-23T01:17:07.714Z,992.3
2022-12-23T01:18:09.700Z,992.3
2022-12-23T01:19:11.863Z,992.3
2022-12-23T01:20:13.695Z,992.2
2022-12-23T01:21:15.765Z,992.2
2022-12-23T01:22:17.801Z,992.2
2022-12-23T01:23:19.621Z,992.1
2022-12-23T01:24:21.709Z,991.8
2022-12-23T01:25:23.629Z,992.1
2022-12-23T01:26:24.680Z,992.1
2022-12-23T01:27:26.667Z,992.1
2022-12-23T01:28:28.663Z,992.1
2022-12-23T01:29:29.666Z,992.1
2022-12-23T01:30:31.705Z,992.1
2022-12-23T01:31:33.716Z,992
2022-12-23T01:32:35.684Z,992
2022-12-23T01:33:37.661Z,992
2022-12-23T01:34:39.700Z,991.7
2022-12-23T01:35:41.622Z,992
2022-12-23T01:36:42.680Z,991.9
2022-12-23T01:37:44.703Z,992
2022-12-23T01:38:46.622Z,992
2022-12-23T01:39:47.690Z,992
2022-12-23T01:40:48.702Z,991.9
2022-12-23T01:41:50.661Z,991.8
2022-12-23T01:42:52.669Z,991.5
2022-12-23T01:43:53.657Z,991.7
2022-12-23T01:44:55.708Z,991.8
2022-12-23T01:45:57.716Z,991.8
2022-12-23T01:46:59.668Z,991.8
2022-12-23T01:48:01.741Z,991.1
2022-12-23T01:49:03.682Z,991.6
2022-12-23T01:50:05.707Z,991.7
2022-12-23T01:51:07.706Z,991.7
2022-12-23T01:52:08.648Z,991.7
2022-12-23T01:53:09.689Z,991.7
2022-12-23T01:54:11.743Z,991.7
2022-12-23T01:55:13.688Z,991.8
2022-12-23T01:56:15.641Z,991.8
2022-12-23T01:57:17.766Z,991.8
2022-12-23T01:58:19.685Z,991.8
2022-12-23T01:59:21.603Z,991.8
2022-12-23T02:00:22.689Z,991.7
2022-12-23T02:01:24.779Z,991.7
2022-12-23T02:02:26.825Z,991.5
2022-12-23T02:06:51.651Z,991.7
2022-12-23T02:07:52.684Z,991.7
2022-12-23T02:08:54.701Z,991.7
2022-12-23T02:09:56.682Z,991.7
2022-12-23T02:10:57.805Z,991.7
2022-12-23T02:11:59.631Z,991.7
2022-12-23T02:13:01.681Z,991.7
2022-12-23T02:14:02.685Z,991.7
2022-12-23T02:15:04.785Z,991.6
2022-12-23T02:16:06.716Z,991.6
2022-12-23T02:17:08.752Z,991.6
2022-12-23T02:18:10.887Z,991.6
2022-12-23T02:19:12.681Z,991.6
2022-12-23T02:20:14.721Z,991.6
2022-12-23T02:21:16.662Z,991.6
2022-12-23T02:22:18.187Z,991.6
2022-12-23T02:23:19.806Z,991.6
2022-12-23T02:24:21.865Z,991.6
2022-12-23T02:25:23.723Z,991.6
2022-12-23T02:26:25.828Z,991.6
2022-12-23T02:27:27.722Z,991.6
2022-12-23T02:28:28.662Z,991.6
2022-12-23T02:29:29.616Z,991.6
2022-12-23T02:30:30.744Z,991.6
2022-12-23T02:31:32.743Z,991.7
2022-12-23T02:32:34.605Z,991.7
2022-12-23T02:33:35.930Z,991.7
2022-12-23T02:34:37.934Z,991.7
2022-12-23T02:35:39.681Z,991.6
2022-12-23T02:36:41.716Z,991.6
2022-12-23T02:37:43.684Z,991.6
2022-12-23T02:38:44.720Z,991.6
2022-12-23T02:39:46.699Z,991.6
2022-12-23T02:40:48.750Z,991.6
2022-12-23T02:41:50.807Z,991.7
2022-12-23T02:42:52.778Z,991.6
2022-12-23T02:43:54.670Z,991.6
2022-12-23T02:44:56.673Z,991.6
2022-12-23T02:45:58.841Z,991.6
2022-12-23T02:47:00.703Z,991.6
2022-12-23T02:48:01.758Z,991.6
2022-12-23T02:49:03.760Z,991.6
2022-12-23T02:50:05.701Z,991.6
2022-12-23T02:51:07.766Z,991.6
2022-12-23T02:52:09.728Z,991.6
2022-12-23T02:53:11.732Z,991.6
2022-12-23T02:54:13.681Z,991.6
2022-12-23T02:55:15.710Z,991.6
2022-12-23T02:56:17.925Z,991.6
2022-12-23T02:57:19.665Z,991.3
2022-12-23T02:58:20.720Z,991.5
2022-12-23T02:59:22.720Z,991.6
2022-12-23T03:00:24.749Z,991.6
2022-12-23T03:01:26.874Z,991.6
2022-12-23T03:02:28.870Z,991.6
2022-12-23T03:03:30.742Z,991.6
2022-12-23T03:04:32.762Z,991.7
2022-12-23T03:05:34.744Z,991.6
2022-12-23T03:06:36.820Z,991.7
2022-12-23T03:07:38.760Z,991.6
2022-12-23T03:08:40.761Z,991.6
2022-12-23T03:09:42.681Z,991.6
2022-12-23T03:10:43.695Z,991.6
2022-12-23T03:11:45.669Z,991.6
2022-12-23T03:12:46.809Z,991.6
2022-12-23T03:13:48.719Z,991.6
2022-12-23T03:14:50.719Z,991.5
2022-12-23T03:15:52.740Z,991.3
2022-12-23T03:16:54.743Z,990.8
2022-12-23T03:17:56.741Z,991.4
2022-12-23T03:18:58.669Z,991.7
2022-12-23T03:19:59.694Z,991.7
2022-12-23T03:21:01.726Z,991.6
2022-12-23T03:22:03.698Z,991.6
2022-12-23T03:23:05.967Z,991.5
2022-12-23T03:24:07.797Z,991.5
2022-12-23T03:25:09.861Z,991.5
2022-12-23T03:26:11.739Z,991.5
2022-12-23T03:27:13.663Z,991.5
2022-12-23T03:28:14.703Z,991.5
2022-12-23T03:29:15.845Z,991.5
2022-12-23T03:30:18.020Z,991.5
2022-12-23T03:31:19.764Z,991.5
2022-12-23T03:32:22.108Z,991.5
2022-12-23T03:33:23.680Z,991.5
2022-12-23T03:34:26.002Z,991.6
2022-12-23T03:35:27.760Z,991.5
2022-12-23T03:36:29.768Z,991.6
2022-12-23T03:37:31.720Z,991.6
2022-12-23T03:38:33.701Z,991.6
2022-12-23T03:39:35.719Z,991.5
2022-12-23T03:40:37.809Z,991.5
2022-12-23T03:41:39.829Z,991.5
2022-12-23T03:42:41.699Z,991.4
2022-12-23T03:43:50.313Z,991.4
2022-12-23T03:45:03.921Z,991.4
2022-12-23T03:45:47.728Z,991.4
2022-12-23T03:46:49.831Z,991.4
2022-12-23T03:47:51.721Z,991.4
2022-12-23T03:48:53.699Z,991.4
2022-12-23T03:49:55.746Z,991.4
2022-12-23T03:50:57.841Z,991.4
2022-12-23T03:51:59.780Z,991.5
2022-12-23T03:53:01.790Z,991.4
2022-12-23T03:54:03.679Z,991.5
2022-12-23T03:55:04.722Z,991.5
2022-12-23T03:56:06.768Z,991.5
2022-12-23T03:57:08.763Z,991.4
2022-12-23T03:58:10.744Z,991.3
2022-12-23T03:59:12.804Z,991.3
2022-12-23T04:00:14.739Z,991.4
2022-12-23T04:01:18.055Z,991.3
2022-12-23T04:02:17.863Z,991.3
2022-12-23T04:03:19.742Z,991.4
2022-12-23T04:04:21.807Z,991.4
2022-12-23T04:05:23.689Z,991.4
2022-12-23T04:06:24.684Z,991.3
2022-12-23T04:07:25.739Z,991.4
2022-12-23T04:08:27.794Z,991.4
2022-12-23T04:09:29.745Z,991.3
2022-12-23T04:10:31.729Z,991.3
2022-12-23T04:11:33.741Z,991.3
2022-12-23T04:12:35.763Z,991.4
2022-12-23T04:13:37.805Z,991.3
2022-12-23T04:14:39.902Z,991.4
2022-12-23T04:15:41.758Z,991.4
2022-12-23T04:16:43.789Z,991.4
2022-12-23T04:17:45.740Z,991.4
2022-12-23T04:18:47.698Z,991.3
2022-12-23T04:19:48.750Z,991.3
2022-12-23T04:20:50.759Z,991.3
2022-12-23T04:21:52.760Z,991.3
2022-12-23T04:22:54.747Z,991.3
2022-12-23T04:23:55.740Z,991.3
2022-12-23T04:24:57.820Z,991.3
2022-12-23T04:25:59.828Z,991.3
2022-12-23T04:27:01.822Z,991.3
2022-12-23T04:28:03.785Z,991.3
2022-12-23T04:29:05.721Z,991.2
2022-12-23T04:30:08.106Z,991.2
2022-12-23T04:31:09.795Z,991.2
2022-12-23T04:32:11.770Z,991.2
2022-12-23T04:33:13.770Z,991.2
2022-12-23T04:34:15.730Z,991.1
2022-12-23T04:35:17.823Z,991.1
2022-12-23T04:36:19.762Z,991.2
2022-12-23T04:37:21.840Z,991.1
2022-12-23T04:38:23.726Z,991.1
2022-12-23T04:39:25.788Z,991.1
2022-12-23T04:40:27.741Z,991
2022-12-23T04:41:28.802Z,991
2022-12-23T04:42:30.762Z,991
2022-12-23T04:43:32.739Z,991
2022-12-23T04:44:33.773Z,991.1
2022-12-23T04:45:35.744Z,991.1
2022-12-23T04:46:36.844Z,991
2022-12-23T04:47:38.799Z,991
2022-12-23T04:48:40.788Z,991
2022-12-23T04:49:42.810Z,991
2022-12-23T04:50:44.742Z,991
2022-12-23T04:51:45.803Z,991
2022-12-23T04:52:47.765Z,991
2022-12-23T04:53:49.780Z,991
2022-12-23T04:54:51.742Z,990.9
2022-12-23T04:55:53.784Z,990.9
2022-12-23T04:56:55.763Z,991
2022-12-23T04:57:57.926Z,990.9
2022-12-23T04:58:59.784Z,991
2022-12-23T05:00:01.957Z,991
2022-12-23T05:01:03.832Z,991
2022-12-23T05:02:05.908Z,990.9
2022-12-23T05:03:06.890Z,990.9
2022-12-23T05:04:08.785Z,990.9
2022-12-23T05:05:10.722Z,990.9
2022-12-23T05:06:12.727Z,990.8
2022-12-23T05:07:13.750Z,990.8
2022-12-23T05:08:15.772Z,990.9
2022-12-23T05:09:17.795Z,990.8
2022-12-23T05:10:19.841Z,990.8
2022-12-23T05:11:21.777Z,990.8
2022-12-23T05:12:23.707Z,990.7
2022-12-23T05:13:24.720Z,990.8
2022-12-23T05:14:25.852Z,990.8
2022-12-23T05:15:27.828Z,990.8
2022-12-23T05:16:29.990Z,990.8
2022-12-23T05:17:30.683Z,990.8
2022-12-23T05:18:31.783Z,990.8
2022-12-23T05:19:33.808Z,990.8
2022-12-23T05:20:35.808Z,990.8
2022-12-23T05:21:37.922Z,990.8
2022-12-23T05:22:39.840Z,990.8
2022-12-23T05:23:41.792Z,990.8
2022-12-23T05:24:43.717Z,990.9
2022-12-23T05:25:44.750Z,990.8
2022-12-23T05:26:48.018Z,990.8
2022-12-23T05:27:48.779Z,990.8
2022-12-23T05:28:50.819Z,990.8
2022-12-23T05:29:52.820Z,990.8
2022-12-23T05:30:54.782Z,990.8
2022-12-23T05:31:56.975Z,990.8
2022-12-23T05:32:58.868Z,990.1
2022-12-23T05:34:05.862Z,990.7
2022-12-23T05:35:02.910Z,990.2
2022-12-23T05:36:04.721Z,990.6
2022-12-23T05:37:05.703Z,990.7
2022-12-23T05:38:12.861Z,990.7
2022-12-23T05:39:14.780Z,990.8
2022-12-23T05:40:19.996Z,990.7
2022-12-23T05:41:17.844Z,990.8
2022-12-23T05:42:19.751Z,990.8
2022-12-23T05:43:21.827Z,990.6
2022-12-23T05:44:23.746Z,990.7
2022-12-23T05:45:25.898Z,990.2
2022-12-23T05:46:27.436Z,990.6
2022-12-23T05:47:28.786Z,990.7
2022-12-23T05:48:30.739Z,990.7
2022-12-23T05:49:31.760Z,990.8
2022-12-23T05:50:33.735Z,990.7
2022-12-23T05:51:35.760Z,990.7
2022-12-23T05:52:36.750Z,990.8
2022-12-23T05:53:37.912Z,990.8
2022-12-23T05:54:39.748Z,990.8
2022-12-23T05:55:40.748Z,990.8
2022-12-23T05:56:41.804Z,990.8
2022-12-23T05:57:43.791Z,990.2
2022-12-23T05:58:44.783Z,990.6
2022-12-23T05:59:46.788Z,990.6
2022-12-23T06:00:48.901Z,990.7
2022-12-23T06:01:50.912Z,990.7
2022-12-23T06:02:54.040Z,990.8
2022-12-23T06:03:54.938Z,990.7
2022-12-23T06:04:55.780Z,990.8
2022-12-23T06:05:57.920Z,990.8
2022-12-23T06:06:59.789Z,990.8
2022-12-23T06:08:01.843Z,990.8
2022-12-23T06:09:03.868Z,990.8
2022-12-23T06:10:05.843Z,990.9
2022-12-23T06:11:07.820Z,990.9
2022-12-23T06:12:09.783Z,990.9
2022-12-23T06:13:10.750Z,990.9
2022-12-23T06:14:12.859Z,990.8
2022-12-23T06:15:14.788Z,990.9
2022-12-23T06:16:16.816Z,990.9
2022-12-23T06:17:18.779Z,990.9
2022-12-23T06:18:20.958Z,990.9
2022-12-23T06:19:22.802Z,990.9
2022-12-23T06:20:24.825Z,990.9
2022-12-23T06:21:26.867Z,990.9
2022-12-23T06:22:28.893Z,990.9
2022-12-23T06:23:30.823Z,990.8
2022-12-23T06:24:32.811Z,990.8
2022-12-23T06:25:34.828Z,990.9
2022-12-23T06:26:36.861Z,991
2022-12-23T06:27:38.820Z,990.9
2022-12-23T06:28:40.824Z,990.9
2022-12-23T06:29:42.842Z,990.9
2022-12-23T06:30:44.780Z,990.8
2022-12-23T06:31:45.902Z,990.8
2022-12-23T06:32:48.020Z,990.9
2022-12-23T06:33:50.923Z,990.8
2022-12-23T06:34:53.550Z,990.9
2022-12-23T06:35:54.962Z,990.8
2022-12-23T06:36:56.842Z,990.8
2022-12-23T06:37:59.098Z,990.8
2022-12-23T06:39:00.867Z,990.8
2022-12-23T06:40:02.944Z,990.2
2022-12-23T06:41:04.867Z,990.7
2022-12-23T06:42:06.819Z,990.7
2022-12-23T06:43:08.815Z,990.8
2022-12-23T06:44:09.787Z,990.9
2022-12-23T06:45:10.797Z,990.9
2022-12-23T06:46:13.046Z,990.9
2022-12-23T06:47:14.825Z,990.9
2022-12-23T06:48:15.840Z,990.9
2022-12-23T06:49:17.902Z,991.1
2022-12-23T06:50:19.811Z,991
2022-12-23T06:51:20.909Z,990.9
2022-12-23T06:52:22.822Z,990.9
2022-12-23T06:53:24.838Z,990.9
2022-12-23T06:54:26.759Z,990.9
2022-12-23T06:55:27.779Z,990.9
2022-12-23T06:56:29.897Z,990.9
2022-12-23T06:57:31.813Z,990.9
2022-12-23T06:58:32.847Z,990.9
2022-12-23T06:59:34.893Z,990.9
2022-12-23T07:00:36.900Z,991
2022-12-23T07:01:39.033Z,990.9
2022-12-23T07:02:40.958Z,990.9
2022-12-23T07:03:42.948Z,990.9
2022-12-23T07:04:44.834Z,990.9
2022-12-23T07:05:46.807Z,990.9
2022-12-23T07:06:48.800Z,990.9
2022-12-23T07:07:50.886Z,990.9
2022-12-23T07:08:52.842Z,990.9
2022-12-23T07:09:54.825Z,990.9
2022-12-23T07:10:56.820Z,990.9
2022-12-23T07:11:58.844Z,991
2022-12-23T07:13:00.841Z,990.9
2022-12-23T07:14:02.780Z,990.9
2022-12-23T07:15:03.899Z,990.8
2022-12-23T07:16:05.936Z,990.8
2022-12-23T07:17:07.933Z,990.9
2022-12-23T07:18:09.793Z,990.8
2022-12-23T07:19:10.763Z,990.8
2022-12-23T07:20:11.952Z,990.8
2022-12-23T07:21:21.531Z,990.9
2022-12-23T07:22:15.822Z,990.8
2022-12-23T07:23:16.818Z,990.3
2022-12-23T07:24:18.891Z,990.7
2022-12-23T07:25:20.915Z,990.8
2022-12-23T07:26:22.879Z,990.8
2022-12-23T07:27:24.879Z,990.8
2022-12-23T07:28:26.947Z,990.9
2022-12-23T07:29:29.019Z,990.8
2022-12-23T07:30:31.669Z,990.8
2022-12-23T07:31:33.287Z,990.8
2022-12-23T07:32:34.962Z,990.8
2022-12-23T07:33:36.958Z,990.9
2022-12-23T07:34:39.200Z,990.8
2022-12-23T07:35:40.885Z,990.8
2022-12-23T07:36:42.933Z,990.8
2022-12-23T07:37:44.860Z,990.8
2022-12-23T07:38:46.839Z,990.8
2022-12-23T07:39:48.848Z,990.8
2022-12-23T07:40:50.859Z,990.9
2022-12-23T07:42:09.276Z,990.8
2022-12-23T07:42:54.811Z,990.9
2022-12-23T07:43:55.847Z,990.9
2022-12-23T07:44:57.888Z,990.9
2022-12-23T07:46:01.100Z,990.9
2022-12-23T07:47:01.971Z,990.9
2022-12-23T07:48:03.879Z,990.9
2022-12-23T07:49:05.897Z,990.9
2022-12-23T07:50:08.035Z,990.9
2022-12-23T07:51:09.876Z,990.8
2022-12-23T07:52:11.819Z,990.8
2022-12-23T07:53:13.912Z,991
2022-12-23T07:54:15.898Z,990.9
2022-12-23T07:55:17.939Z,991
2022-12-23T07:56:19.999Z,990.9
2022-12-23T07:57:21.861Z,991
2022-12-23T07:58:23.879Z,990.9
2022-12-23T07:59:25.886Z,991
2022-12-23T08:00:27.947Z,990.9
2022-12-23T08:01:29.948Z,990.9
2022-12-23T08:02:31.017Z,990.9
2022-12-23T08:03:32.920Z,990.8
2022-12-23T08:04:33.869Z,990.8
2022-12-23T08:05:35.944Z,990.4
2022-12-23T08:06:38.046Z,990.8
2022-12-23T08:07:39.841Z,990.2
2022-12-23T08:08:41.859Z,990.7
2022-12-23T08:09:43.873Z,990.8
2022-12-23T08:10:48.411Z,990.8
2022-12-23T08:11:47.917Z,990.8
2022-12-23T08:12:49.822Z,990.8
2022-12-23T08:13:50.839Z,990.8
2022-12-23T08:14:51.907Z,990.8
2022-12-23T08:15:53.879Z,990.9
2022-12-23T08:16:55.869Z,990.9
2022-12-23T08:17:57.879Z,990.9
2022-12-23T08:18:59.838Z,990.9
2022-12-23T08:20:01.973Z,990.8
2022-12-23T08:21:03.893Z,990.8
2022-12-23T08:22:05.861Z,990.8
2022-12-23T08:23:06.862Z,990.8
2022-12-23T08:24:08.794Z,990.8
2022-12-23T08:25:09.819Z,990.8
2022-12-23T08:26:11.025Z,990.8
2022-12-23T08:27:13.500Z,990.8
2022-12-23T08:28:14.999Z,990.8
2022-12-23T08:29:16.907Z,990.9
2022-12-23T08:30:18.882Z,990.8
2022-12-23T08:31:20.927Z,990.9
2022-12-23T08:32:21.999Z,990.8
2022-12-23T08:33:23.884Z,990.8
2022-12-23T08:34:25.907Z,990.7
2022-12-23T08:35:27.842Z,990.7
2022-12-23T08:36:29.948Z,990.7
2022-12-23T08:37:31.864Z,990.8
2022-12-23T08:38:33.238Z,990.8
2022-12-23T08:39:37.998Z,990.7
2022-12-23T08:40:39.840Z,990.7
2022-12-23T08:41:41.165Z,990.7
2022-12-23T08:42:42.899Z,990.7
2022-12-23T08:43:45.038Z,990.6
2022-12-23T08:44:46.967Z,990.6
2022-12-23T08:45:48.969Z,990.6
2022-12-23T08:46:51.152Z,990.6
2022-12-23T08:47:53.218Z,990.7
2022-12-23T08:48:54.919Z,990.2
2022-12-23T08:49:56.818Z,990.6
2022-12-23T08:50:58.101Z,990.6
2022-12-23T08:51:59.959Z,990.7
2022-12-23T08:53:02.237Z,990.7
2022-12-23T08:54:03.918Z,990.5
2022-12-23T08:55:06.167Z,990.6
2022-12-23T08:56:08.345Z,990.6
2022-12-23T08:57:09.930Z,990.7
2022-12-23T08:58:11.860Z,990.7
2022-12-23T08:59:18.545Z,990.6
2022-12-23T09:00:15.940Z,990.6
2022-12-23T09:01:18.049Z,990.6
2022-12-23T09:02:20.063Z,990.6
2022-12-23T09:03:20.995Z,990.6
2022-12-23T09:04:22.885Z,990.6
2022-12-23T09:05:24.899Z,990.6
2022-12-23T09:06:29.760Z,990.5
2022-12-23T09:07:27.847Z,990.5
2022-12-23T09:08:29.948Z,990.6
2022-12-23T09:09:31.905Z,990.7
2022-12-23T09:10:33.951Z,990.6
2022-12-23T09:11:36.070Z,990.6
2022-12-23T09:12:37.943Z,990.3
2022-12-23T09:13:40.010Z,990.5
2022-12-23T09:14:41.903Z,990.6
2022-12-23T09:15:44.570Z,989.5
2022-12-23T09:16:45.939Z,990.3
2022-12-23T09:17:47.885Z,990.6
2022-12-23T09:18:49.221Z,990.3
2022-12-23T09:19:53.069Z,990.6
2022-12-23T09:20:52.919Z,990.6
2022-12-23T09:21:54.929Z,990.6
2022-12-23T09:22:56.882Z,990.6
2022-12-23T09:23:58.977Z,990.6
2022-12-23T09:25:04.716Z,990.6
2022-12-23T09:26:01.987Z,990.6
2022-12-23T09:27:03.925Z,990.6
2022-12-23T09:28:05.908Z,990.6
2022-12-23T09:29:07.964Z,990.6
2022-12-23T09:30:10.000Z,990.6
2022-12-23T09:31:11.925Z,990.6
2022-12-23T09:32:13.915Z,990.6
2022-12-23T09:33:15.880Z,990.6
2022-12-23T09:34:17.875Z,990.7
2022-12-23T09:35:19.900Z,990.6
2022-12-23T09:36:20.899Z,990.6
2022-12-23T09:37:22.939Z,990.6
2022-12-23T09:38:24.879Z,990.6
2022-12-23T09:39:26.961Z,990.6
2022-12-23T09:40:28.913Z,990.6
2022-12-23T09:41:30.879Z,990.6
2022-12-23T09:42:32.922Z,990.6
2022-12-23T09:43:34.930Z,990.6
2022-12-23T09:44:36.979Z,990.6
2022-12-23T09:45:40.746Z,990.6
2022-12-23T09:46:41.205Z,990.7
2022-12-23T09:47:43.325Z,990.6
2022-12-23T09:48:45.254Z,990.7
2022-12-23T09:49:46.982Z,990.6
2022-12-23T09:50:48.876Z,990.6
2022-12-23T09:51:51.412Z,990.6
2022-12-23T09:52:53.622Z,990.6
2022-12-23T09:53:55.080Z,990.6
2022-12-23T09:54:57.239Z,990.6
2022-12-23T09:55:59.002Z,990.6
2022-12-23T09:57:00.926Z,990.6
2022-12-23T09:58:02.944Z,990.6
2022-12-23T09:59:03.902Z,990.6
2022-12-23T10:00:04.960Z,990.6
2022-12-23T10:01:06.922Z,990.7
2022-12-23T10:02:08.994Z,990.7
2022-12-23T10:03:10.081Z,990.7
2022-12-23T10:04:10.934Z,990.7
2022-12-23T10:05:13.119Z,990.7
2022-12-23T10:06:14.898Z,990.6
2022-12-23T10:07:15.865Z,990.6
2022-12-23T10:08:16.942Z,990.6
2022-12-23T10:09:18.956Z,990.6
2022-12-23T10:10:20.925Z,990.6
2022-12-23T10:11:23.360Z,990.6
2022-12-23T10:12:28.170Z,990.5
2022-12-23T10:13:27.474Z,990.6
2022-12-23T10:14:28.925Z,990.6
2022-12-23T10:15:31.001Z,990.6
2022-12-23T10:16:33.447Z,990.7
2022-12-23T10:17:34.901Z,990.7
2022-12-23T10:18:35.901Z,990.7
2022-12-23T10:19:38.331Z,990.7
2022-12-23T10:20:40.969Z,990.6
2022-12-23T10:21:47.076Z,990.6
2022-12-23T10:22:44.935Z,990.6
2022-12-23T10:23:46.344Z,990.6
2022-12-23T10:24:47.945Z,990.7
2022-12-23T10:25:49.965Z,990.6
2022-12-23T10:26:51.965Z,990.6
2022-12-23T10:27:54.143Z,990.6
2022-12-23T10:28:56.061Z,990.6
2022-12-23T10:29:58.048Z,990.6
2022-12-23T10:32:02.386Z,990.7
2022-12-23T10:33:03.910Z,990.6
2022-12-23T10:34:05.973Z,990.6
2022-12-23T10:35:07.973Z,990.6
2022-12-23T10:36:10.011Z,990.6
2022-12-23T10:37:13.207Z,990.6
2022-12-23T10:38:15.083Z,990.6
2022-12-23T10:39:16.982Z,990.6
2022-12-23T10:40:18.923Z,990.6
2022-12-23T10:41:20.088Z,990.6
2022-12-23T10:42:22.226Z,990.6
2022-12-23T10:43:24.421Z,990.6
2022-12-23T10:44:26.746Z,990.6
2022-12-23T10:45:27.942Z,990.5
2022-12-23T10:46:29.992Z,990.6
2022-12-23T10:47:31.920Z,990.6
2022-12-23T10:48:33.156Z,990.6
2022-12-23T10:49:33.982Z,990.6
2022-12-23T10:50:35.988Z,990.6
2022-12-23T10:51:38.149Z,990.6
2022-12-23T10:52:39.945Z,990.6
2022-12-23T10:53:42.723Z,990.6
2022-12-23T10:54:44.831Z,990.6
2022-12-23T10:55:46.362Z,990.7
2022-12-23T10:56:48.249Z,990.7
2022-12-23T10:57:50.142Z,990.6
2022-12-23T10:58:52.425Z,990.6
2022-12-23T10:59:53.942Z,990.6
2022-12-23T11:00:56.003Z,990.7
2022-12-23T11:01:58.154Z,990.6
2022-12-23T11:03:00.130Z,990.7
2022-12-23T11:04:01.970Z,990.7
2022-12-23T11:05:04.118Z,990.6
2022-12-23T11:06:06.001Z,990.6
2022-12-23T11:07:41.898Z,990.6
2022-12-23T11:08:08.981Z,990.6
2022-12-23T11:09:11.154Z,990.6
2022-12-23T11:10:13.081Z,990.6
2022-12-23T11:11:15.586Z,990.6
2022-12-23T11:12:17.187Z,990.6
2022-12-23T11:13:18.942Z,990.7
2022-12-23T11:14:21.102Z,990.7
2022-12-23T11:15:22.962Z,990.7
2022-12-23T11:16:25.811Z,990.7
2022-12-23T11:17:27.967Z,990.7
2022-12-23T11:18:30.009Z,990.7
2022-12-23T11:19:32.216Z,990.7
2022-12-23T11:20:34.007Z,990.7
2022-12-23T11:21:36.027Z,990.7
2022-12-23T11:22:38.029Z,990.7
2022-12-23T11:23:40.048Z,990.8
2022-12-23T11:24:43.358Z,990.7
2022-12-23T11:25:43.999Z,990.8
2022-12-23T11:26:46.323Z,990.8
2022-12-23T11:27:47.930Z,990.8
2022-12-23T11:28:49.969Z,990.7
2022-12-23T11:29:52.062Z,990.7
2022-12-23T11:30:56.434Z,990.7
2022-12-23T11:31:56.132Z,990.7
2022-12-23T11:32:58.122Z,990.8
2022-12-23T11:33:59.981Z,990.7
2022-12-23T11:35:02.173Z,990.7
2022-12-23T11:36:03.932Z,990.7
2022-12-23T11:37:07.388Z,990.7
2022-12-23T11:38:07.044Z,990.7
2022-12-23T11:39:09.197Z,990.8
2022-12-23T11:40:11.063Z,990.8
2022-12-23T11:41:12.967Z,990.7
2022-12-23T11:42:15.002Z,990.7
2022-12-23T11:43:17.030Z,990.7
2022-12-23T11:44:19.088Z,990.8
2022-12-23T11:45:21.297Z,990.8
2022-12-23T11:46:23.444Z,990.7
2022-12-23T11:47:26.489Z,990.7
2022-12-23T11:48:28.812Z,990.7
2022-12-23T11:49:31.043Z,990.6
2022-12-23T11:50:33.405Z,990.7
2022-12-23T11:51:35.246Z,990.6
2022-12-23T11:52:37.003Z,990.6
2022-12-23T11:53:39.163Z,990.6
2022-12-23T11:54:40.981Z,990.6
2022-12-23T11:55:43.102Z,990.6
2022-12-23T11:56:45.352Z,989.7
2022-12-23T11:57:46.942Z,990.4
2022-12-23T11:58:47.968Z,990.5
2022-12-23T11:59:49.503Z,990.6
2022-12-23T12:00:55.465Z,990.6
2022-12-23T12:01:53.292Z,990.6
2022-12-23T12:02:55.114Z,990.6
2022-12-23T12:03:56.176Z,990.6
2022-12-23T12:04:58.202Z,990.6
2022-12-23T12:06:00.045Z,990.7
2022-12-23T12:07:02.183Z,990.7
2022-12-23T12:08:04.404Z,990.6
2022-12-23T12:09:06.327Z,990.7
2022-12-23T12:10:08.001Z,990.6
2022-12-23T12:11:11.044Z,990.7
2022-12-23T12:12:13.390Z,990.6
2022-12-23T12:13:14.942Z,990
2022-12-23T12:14:15.987Z,990.6
2022-12-23T12:15:17.548Z,990.7
2022-12-23T12:16:19.060Z,990.8
2022-12-23T12:17:21.201Z,990.7
2022-12-23T12:18:23.212Z,990.7
2022-12-23T12:19:25.029Z,990.7
2022-12-23T12:20:27.092Z,990.7
2022-12-23T12:21:29.157Z,990.8
2022-12-23T12:22:31.025Z,990.7
2022-12-23T12:23:32.974Z,990.7
2022-12-23T12:24:34.073Z,990.7
2022-12-23T12:25:39.485Z,990.6
2022-12-23T12:26:37.986Z,990.6
2022-12-23T12:27:40.045Z,990.6
2022-12-23T12:28:42.011Z,990.6
2022-12-23T12:29:44.023Z,990.7
2022-12-23T12:30:45.046Z,990.7
2022-12-23T12:31:47.030Z,990.6
2022-12-23T12:32:49.081Z,990.8
2022-12-23T12:33:51.207Z,990.7
2022-12-23T12:34:52.990Z,990.7
2022-12-23T12:35:55.243Z,990.8
2022-12-23T12:36:56.143Z,990.7
2022-12-23T12:37:58.382Z,990.8
2022-12-23T12:39:00.139Z,990.9
2022-12-23T12:40:02.534Z,990.8
2022-12-23T12:41:04.051Z,990.8
2022-12-23T12:42:06.175Z,990.8
2022-12-23T12:43:07.158Z,990.9
2022-12-23T12:44:09.002Z,990.8
2022-12-23T12:45:11.072Z,990.8
2022-12-23T12:46:13.380Z,990.9
2022-12-23T12:47:36.635Z,990.9
2022-12-23T12:48:18.829Z,991
2022-12-23T12:49:19.001Z,991
2022-12-23T12:50:22.127Z,990.9
2022-12-23T12:51:24.000Z,991
2022-12-23T12:52:26.004Z,991
2022-12-23T12:53:28.083Z,991
2022-12-23T12:54:30.135Z,991
2022-12-23T12:55:32.021Z,990.9
2022-12-23T12:56:34.025Z,991.1
2022-12-23T12:57:36.159Z,991
2022-12-23T12:58:38.127Z,991.1
2022-12-23T12:59:40.440Z,991
2022-12-23T13:00:42.310Z,991
2022-12-23T13:01:44.206Z,991.1
2022-12-23T13:02:46.172Z,991
2022-12-23T13:03:48.401Z,991.1
2022-12-23T13:04:50.128Z,991.1
2022-12-23T13:05:54.321Z,991
2022-12-23T13:06:54.545Z,991.1
2022-12-23T13:07:56.119Z,991.1
2022-12-23T13:08:58.582Z,991.1
2022-12-23T13:10:00.169Z,991.1
2022-12-23T13:11:02.479Z,991.1
2022-12-23T13:12:04.995Z,991.1
2022-12-23T13:13:06.300Z,991.2
2022-12-23T13:14:07.979Z,991.2
2022-12-23T13:15:10.162Z,991.2
2022-12-23T13:16:12.087Z,991.2
2022-12-23T13:17:14.245Z,991.3
2022-12-23T13:18:16.357Z,991.2
2022-12-23T13:19:18.289Z,991.2
2022-12-23T13:20:20.239Z,991.3
2022-12-23T13:21:22.439Z,991.2
2022-12-23T13:22:24.517Z,991.2
2022-12-23T13:24:28.229Z,991.3
2022-12-23T13:25:30.135Z,991.3